Latest Weather Observations for Truscott

IDD60801

Issued at 4:01 pm CST Thursday 28 July 2016 (issued every 30 minutes, with the page automatically refreshed every 10 minutes)

About weather observations | Map of weather stations | Latest weather observations for NT | Other Formats
Station Details ID: 001020 Name: TRUSCOTT Lat: -14.09 Lon: 126.39 Height: 51.0 m
Data from the previous 72 hours. | See also: Recent months at Truscott
Date/Time
CST
Temp
°C
App
Temp
°C
Dew
Point
°C
Rel
Hum
%
Delta-T
°C
Wind Press
QNH
hPa
Press
MSL
hPa
Rain since
9am
mm
Dir  Spd
km/h
Gust
km/h
Spd
kts
Gust
kts
28/04:00pm 30.5 25.7 2.7 17 14.0 E 17 24 9 13 1012.6 1012.3 0.0
28/03:30pm 30.7 26.0 2.9 17 14.0 ENE 17 24 9 13 1012.8 1012.5 0.0
28/03:00pm 29.8 24.9 2.1 17 13.7 E 17 28 9 15 1013.2 1013.0 0.0
28/02:30pm 30.0 24.6 2.3 17 13.8 ENE 20 32 11 17 1013.6 1013.4 0.0
28/02:00pm 29.5 24.5 1.1 16 13.8 E 17 30 9 16 1014.3 1014.1 0.0
28/01:30pm 29.0 23.1 1.5 17 13.4 E 22 33 12 18 1014.8 1014.6 0.0
28/01:00pm 28.9 23.3 1.4 17 13.4 E 20 41 11 22 1015.2 1015.0 0.0
28/12:30pm 28.5 22.6 1.9 18 13.0 ESE 22 35 12 19 1015.8 1015.6 0.0
28/12:00pm 27.8 21.5 1.3 18 12.8 E 24 37 13 20 1016.2 1016.0 0.0
28/11:30am 27.4 21.9 1.8 19 12.4 E 20 33 11 18 1016.5 1016.3 0.0
28/11:00am 26.9 20.8 0.6 18 12.4 ESE 22 35 12 19 1016.9 1016.7 0.0
28/10:30am 26.3 19.8 0.1 18 12.2 ESE 24 37 13 20 1017.1 1016.9 0.0
28/10:00am 25.8 19.7 0.5 19 11.8 ESE 22 41 12 22 1017.3 1017.1 0.0
28/09:30am 25.2 19.0 0.0 19 11.6 ESE 22 39 12 21 1017.2 1017.0 0.0
28/09:00am 24.7 19.2 0.3 20 11.3 ESE 19 35 10 19 1017.1 1016.9 0.0
28/08:30am 23.9 18.4 0.9 22 10.7 ESE 19 30 10 16 1017.0 1016.8 0.0
28/08:00am 23.3 18.8 2.2 25 10.0 ESE 15 24 8 13 1016.6 1016.4 0.0
28/07:30am 23.1 19.1 2.6 26 9.8 ESE 13 22 7 12 1016.2 1016.0 0.0
28/07:00am 23.1 19.5 3.1 27 9.6 SE 11 24 6 13 1015.6 1015.4 0.0
28/06:30am 23.5 19.2 3.4 27 9.8 SE 15 26 8 14 1015.3 1015.1 0.0
28/06:00am 23.8 20.0 3.7 27 9.8 SE 13 20 7 11 1015.2 1015.0 0.0
28/05:30am 23.7 19.9 4.1 28 9.7 SE 13 17 7 9 1015.1 1014.9 0.0
28/05:00am 24.0 20.4 4.9 29 9.6 SE 13 20 7 11 1014.9 1014.7 0.0
28/04:30am 24.5 20.1 4.8 28 9.9 ESE 17 33 9 18 1014.7 1014.5 0.0
28/04:00am 24.4 20.5 5.2 29 9.7 SE 15 24 8 13 1014.6 1014.4 0.0
28/03:30am 23.1 20.4 5.5 32 8.9 SE 9 15 5 8 1014.7 1014.5 0.0
28/03:00am 23.3 20.6 5.7 32 8.9 ESE 9 15 5 8 1014.7 1014.5 0.0
28/02:30am 19.4 17.6 7.2 45 6.2 SSE 6 7 3 4 1014.8 1014.6 0.0
28/02:00am 19.7 19.2 7.8 46 6.1 CALM 0 0 0 0 1014.9 1014.7 0.0
28/01:30am 21.4 19.6 8.0 42 7.0 SSE 7 9 4 5 1014.9 1014.7 0.0
28/01:00am 21.2 19.9 9.1 46 6.4 SSE 6 9 3 5 1014.9 1014.7 0.0
28/12:30am 22.5 21.2 9.3 43 7.1 SE 6 7 3 4 1015.0 1014.8 0.0
28/12:00am 22.7 21.6 10.5 46 6.7 SE 7 9 4 5 1015.0 1014.8 0.0
 
Date/Time
CST
Temp
°C
App
Temp
°C
Dew
Point
°C
Rel
Hum
%
Delta-T
°C
Wind Press
QNH
hPa
Press
MSL
hPa
Rain since
9am
mm
Dir  Spd
km/h
Gust
km/h
Spd
kts
Gust
kts
27/11:30pm 23.1 22.5 12.4 51 6.1 SE 7 9 4 5 1015.1 1014.9 0.0
27/11:00pm 23.7 23.6 13.8 53 5.8 SE 7 11 4 6 1015.1 1014.9 0.0
27/10:30pm 23.7 23.6 13.8 53 5.8 E 7 11 4 6 1015.1 1014.9 0.0
27/10:00pm 23.9 23.9 14.3 55 5.7 E 7 9 4 5 1015.1 1014.9 0.0
27/09:30pm 24.9 24.5 14.1 51 6.4 ENE 9 11 5 6 1014.9 1014.7 0.0
27/09:00pm 25.6 25.2 13.1 46 7.3 ENE 7 15 4 8 1014.5 1014.3 0.0
27/08:30pm 26.1 25.4 13.2 44 7.6 ENE 9 15 5 8 1013.9 1013.7 0.0
27/08:00pm 26.2 25.8 14.0 47 7.2 NE 9 13 5 7 1013.4 1013.2 0.0
27/07:30pm 27.4 26.3 10.6 35 9.5 ENE 7 9 4 5 1013.1 1012.9 0.0
27/07:00pm 28.7 26.6 9.9 31 10.6 ENE 11 17 6 9 1012.8 1012.5 0.0
27/06:30pm 29.8 26.8 9.3 28 11.5 ENE 15 24 8 13 1012.4 1012.1 0.0
27/06:00pm 30.8 27.5 7.9 24 12.6 ENE 15 22 8 12 1012.1 1011.8 0.0
27/05:30pm 31.4 27.1 7.1 22 13.2 ENE 19 26 10 14 1011.9 1011.6 0.0
27/05:00pm 31.5 27.6 7.2 22 13.2 ENE 17 28 9 15 1011.7 1011.4 0.0
27/04:30pm 31.8 26.9 6.8 21 13.6 E 22 35 12 19 1011.6 1011.3 0.0
27/04:00pm 31.6 26.0 7.3 22 13.3 ENE 26 41 14 22 1011.7 1011.4 0.0
27/03:30pm 32.2 26.7 5.7 19 14.2 E 24 41 13 22 1011.8 1011.5 0.0
27/03:00pm 31.8 26.7 6.1 20 13.8 E 22 41 12 22 1011.9 1011.6 0.0
27/02:30pm 32.4 26.7 6.6 20 14.0 E 26 37 14 20 1012.2 1011.9 0.0
27/02:00pm 32.0 26.6 6.2 20 13.9 E 24 39 13 21 1012.5 1012.2 0.0
27/01:51pm 32.0 25.8 6.2 20 13.9 E 28 46 15 25 1012.7 1012.4 0.0
27/01:30pm 32.3 27.1 7.2 21 13.7 E 24 39 13 21 1013.0 1012.8 0.0
27/01:00pm 31.1 26.2 6.9 22 13.1 ESE 22 39 12 21 1013.6 1013.4 0.0
27/12:31pm 30.3 24.3 6.9 23 12.6 E 28 46 15 25 1014.1 1013.9 0.0
27/12:30pm 30.7 25.1 7.2 23 12.8 E 26 46 14 25 1014.2 1014.0 0.0
27/12:00pm 30.3 25.3 8.1 25 12.2 E 24 35 13 19 1014.7 1014.5 0.0
27/11:30am 29.6 24.2 8.1 26 11.8 E 26 41 14 22 1015.1 1014.9 0.0
27/11:00am 28.9 24.0 8.6 28 11.2 E 24 41 13 22 1015.3 1015.1 0.0
27/10:30am 28.3 24.3 9.1 30 10.6 E 20 39 11 21 1015.4 1015.2 0.0
27/10:00am 27.8 23.9 9.6 32 10.1 ESE 20 32 11 17 1015.3 1015.1 0.0
27/09:30am 26.7 23.9 11.2 38 8.8 ESE 17 30 9 16 1015.2 1015.0 0.0
27/09:00am 24.8 25.4 15.7 57 5.5 SE 7 13 4 7 1015.1 1014.9 0.0
27/08:30am 23.5 24.7 17.3 68 3.8 SE 7 11 4 6 1014.9 1014.7 0.0
27/08:00am 21.2 23.1 18.6 85 1.6 S 6 7 3 4 1014.5 1014.3 0.0
27/07:30am 20.7 22.3 17.9 84 1.7 SSE 6 7 3 4 1014.1 1013.9 0.0
27/07:00am 20.3 21.1 16.3 78 2.4 SSE 7 9 4 5 1013.8 1013.6 0.0
27/06:30am 20.4 21.1 15.6 74 2.9 SSE 6 7 3 4 1013.4 1013.2 0.0
27/06:00am 20.9 21.6 16.1 74 2.9 S 7 9 4 5 1013.2 1013.0 0.0
27/05:30am 21.0 21.9 16.6 76 2.7 S 7 9 4 5 1013.2 1013.0 0.0
27/05:00am 21.0 22.3 17.6 81 2.1 S 7 11 4 6 1013.0 1012.8 0.0
27/04:30am 20.6 22.1 18.0 85 1.6 S 7 9 4 5 1012.8 1012.5 0.0
27/04:00am 20.7 22.4 18.5 87 1.4 S 7 9 4 5 1012.7 1012.4 0.0
27/03:30am 20.9 22.7 18.8 88 1.3 SSW 7 9 4 5 1012.9 1012.7 0.0
27/03:00am 21.4 23.9 19.0 86 1.5 SSW 4 7 2 4 1013.0 1012.8 0.0
27/02:30am 22.0 25.1 19.4 85 1.7 SE 2 9 1 5 1013.1 1012.9 0.0
27/02:00am 21.3 24.6 19.2 88 1.3 CALM 0 0 0 0 1013.3 1013.1 0.0
27/01:30am 21.4 24.7 19.0 86 1.5 CALM 0 0 0 0 1013.5 1013.3 0.0
27/01:00am 21.3 24.5 18.9 86 1.5 CALM 0 0 0 0 1013.7 1013.5 0.0
27/12:30am 21.8 25.0 18.8 83 1.9 CALM 0 0 0 0 1013.7 1013.5 0.0
27/12:00am 21.8 24.7 18.2 80 2.2 CALM 0 0 0 0 1013.7 1013.5 0.0
 
Date/Time
CST
Temp
°C
App
Temp
°C
Dew
Point
°C
Rel
Hum
%
Delta-T
°C
Wind Press
QNH
hPa
Press
MSL
hPa
Rain since
9am
mm
Dir  Spd
km/h
Gust
km/h
Spd
kts
Gust
kts
26/11:30pm 21.9 24.9 18.5 81 2.1 CALM 0 0 0 0 1013.8 1013.6 0.0
26/11:00pm 22.4 25.3 18.2 77 2.6 CALM 0 0 0 0 1013.8 1013.6 0.0
26/10:30pm 22.9 25.8 18.2 75 2.9 CALM 0 6 0 3 1013.8 1013.6 0.0
26/10:00pm 23.6 25.5 18.5 73 3.2 NE 6 11 3 6 1013.8 1013.6 0.0
26/09:30pm 24.2 26.0 17.4 65 4.2 ENE 4 6 2 3 1013.6 1013.4 0.0
26/09:00pm 25.0 26.5 17.7 64 4.6 E 6 7 3 4 1013.3 1013.1 0.0
26/08:30pm 25.8 26.9 17.2 59 5.4 ENE 7 9 4 5 1013.0 1012.8 0.0
26/08:00pm 26.3 27.9 17.9 60 5.3 NE 6 9 3 5 1012.5 1012.2 0.0
26/07:30pm 27.1 28.5 17.8 56 5.9 NNE 7 11 4 6 1012.0 1011.7 0.0
26/07:00pm 27.9 28.9 17.7 53 6.5 N 9 15 5 8 1011.5 1011.2 0.0
26/06:30pm 28.9 28.9 17.1 49 7.4 NNE 13 20 7 11 1011.0 1010.7 0.0
26/06:00pm 29.7 28.5 16.1 43 8.5 NNE 17 28 9 15 1010.6 1010.3 0.0
26/05:30pm 30.3 29.0 16.7 44 8.6 NNE 19 33 10 18 1010.2 1009.9 0.0
26/05:00pm 30.9 28.3 14.9 37 9.8 NNE 22 33 12 18 1009.9 1009.6 0.0
26/04:30pm 31.9 29.7 14.5 34 10.7 NNE 19 30 10 16 1009.8 1009.5 0.0
26/04:00pm 31.8 29.6 14.9 36 10.4 N 20 33 11 18 1009.8 1009.5 0.0
26/03:30pm 31.8 30.2 14.9 36 10.4 N 17 26 9 14 1010.2 1009.9 0.0
26/03:00pm 31.3 29.5 16.1 40 9.5 N 20 30 11 16 1010.5 1010.2 0.0
26/02:30pm 33.4 29.9 8.8 22 13.9 ENE 17 28 9 15 1010.7 1010.4 0.0
26/02:00pm 33.2 30.0 8.6 22 13.8 ENE 15 26 8 14 1011.2 1010.9 0.0
26/01:30pm 33.0 30.3 9.1 23 13.5 E 13 24 7 13 1011.7 1011.4 0.0
26/01:00pm 32.3 29.2 10.4 26 12.6 E 17 28 9 15 1012.2 1011.9 0.0
26/12:30pm 32.1 29.5 10.8 27 12.3 E 15 22 8 12 1012.8 1012.5 0.0
26/12:00pm 31.8 29.1 10.5 27 12.3 E 15 24 8 13 1013.2 1013.0 0.0
26/11:30am 31.0 28.7 10.4 28 11.8 ESE 13 26 7 14 1013.5 1013.3 0.0
26/11:00am 30.4 28.4 11.4 31 11.0 ESE 13 22 7 12 1013.9 1013.7 0.0
26/10:30am 29.2 26.1 11.7 34 10.1 ESE 19 28 10 15 1014.0 1013.8 0.0
26/10:00am 27.9 27.7 16.8 50 6.9 SE 13 19 7 10 1014.1 1013.9 0.0
26/09:30am 26.8 29.4 20.4 68 4.2 SSE 7 13 4 7 1014.0 1013.8 0.0
26/09:00am 24.1 27.1 20.8 82 2.2 SE 6 11 3 6 1013.8 1013.6 0.0
26/08:30am 22.7 26.1 21.7 94 0.7 SE 6 7 3 4 1013.7 1013.5 0.0
26/08:00am 21.1 23.9 20.9 99 0.1 SE 7 9 4 5 1013.3 1013.1 0.0
26/07:52am 20.7 23.5 20.5 99 0.1 SSE 6 9 3 5 1013.3 1013.1 0.0
26/07:37am 20.4 22.9 19.9 97 0.3 SSE 6 7 3 4 1013.3 1013.1 0.0
26/07:30am 20.5 23.0 19.8 96 0.4 SSE 6 7 3 4 1013.2 1013.0 0.0
26/07:12am 21.2 24.0 20.5 96 0.5 ESE 6 7 3 4 1013.0 1012.8 0.0
26/07:00am 21.6 24.3 20.6 94 0.6 S 7 11 4 6 1012.8 1012.5 0.0
26/06:47am 21.8 24.7 21.0 95 0.5 S 7 11 4 6 1012.6 1012.3 0.0
26/06:30am 21.9 25.4 21.1 95 0.5 S 4 9 2 5 1012.6 1012.3 0.0
26/06:21am 22.1 25.2 21.1 94 0.7 SSW 6 7 3 4 1012.6 1012.3 0.0
26/06:10am 22.2 25.9 20.8 92 0.9 SE 2 7 1 4 1012.6 1012.3 0.0
26/06:00am 22.9 26.1 21.7 93 0.8 SSW 7 11 4 6 1012.5 1012.2 0.0
26/05:30am 23.2 26.2 22.0 93 0.8 S 9 13 5 7 1012.5 1012.2 0.0
26/05:00am 23.4 25.8 22.2 93 0.8 SSW 13 15 7 8 1012.3 1012.0 0.0
26/04:30am 23.1 26.3 22.4 96 0.5 SW 9 13 5 7 1012.3 1012.0 0.0
26/04:00am 23.5 27.2 23.3 99 0.1 SSW 9 11 5 6 1012.5 1012.2 0.0
26/03:46am 23.7 27.7 23.7 100 0.0 SSW 9 13 5 7 1012.5 1012.2 0.0
26/03:30am 23.7 27.7 23.7 100 0.0 SSW 9 13 5 7 1012.7 1012.4 0.0
26/03:14am 23.8 27.4 23.8 100 0.0 SSW 11 15 6 8 1012.7 1012.4 0.0
26/03:00am 23.9 28.0 23.9 100 0.0 SSW 9 11 5 6 1012.7 1012.4 0.0
26/02:30am 24.2 28.5 24.2 100 0.0 SW 9 11 5 6 1012.9 1012.7 0.0
26/02:23am 24.2 28.5 24.2 100 0.0 SW 9 11 5 6 1012.9 1012.7 0.0
26/02:17am 24.1 28.3 24.1 100 0.0 SW 9 11 5 6 1012.9 1012.7 0.0
26/02:13am 24.1 28.3 24.1 100 0.0 SW 9 11 5 6 1013.0 1012.8 0.0
26/02:00am 23.7 27.7 23.7 100 0.0 SW 9 11 5 6 1013.0 1012.8 0.0
26/01:30am 22.6 27.4 22.1 97 0.3 CALM 0 0 0 0 1013.1 1012.9 0.0
26/01:00am 22.9 27.7 22.2 96 0.5 CALM 0 0 0 0 1013.3 1013.1 0.0
26/12:30am 23.3 27.9 22.5 95 0.5 SW 2 7 1 4 1013.3 1013.1 0.0
26/12:00am 22.7 26.9 21.0 90 1.1 CALM 0 0 0 0 1013.2 1013.0 0.0
 
Date/Time
CST
Temp
°C
App
Temp
°C
Dew
Point
°C
Rel
Hum
%
Delta-T
°C
Wind Press
QNH
hPa
Press
MSL
hPa
Rain since
9am
mm
Dir  Spd
km/h
Gust
km/h
Spd
kts
Gust
kts
25/11:30pm 23.1 27.7 21.7 92 0.9 CALM 0 0 0 0 1013.3 1013.1 0.0
25/11:00pm 23.0 27.5 21.5 91 1.0 CALM 0 0 0 0 1013.5 1013.3 0.0
25/10:30pm 23.8 28.1 21.9 89 1.3 SSW 2 7 1 4 1013.4 1013.2 0.0
25/10:00pm 24.6 29.5 22.3 87 1.5 CALM 0 0 0 0 1013.3 1013.1 0.0
25/09:30pm 24.9 29.2 22.0 84 1.9 NNW 2 7 1 4 1013.0 1012.8 0.0
25/09:00pm 25.7 28.8 22.2 81 2.3 N 9 11 5 6 1012.8 1012.5 0.0
25/08:30pm 26.0 28.7 22.1 79 2.6 NNE 11 17 6 9 1012.4 1012.1 0.0
25/08:00pm 26.3 29.0 22.2 78 2.8 NNE 11 17 6 9 1011.9 1011.6 0.0
25/07:30pm 26.5 28.7 21.9 76 3.1 NNE 13 20 7 11 1011.6 1011.3 0.0
25/07:00pm 26.9 28.5 21.4 72 3.7 NNE 15 24 8 13 1011.3 1011.0 0.0
25/06:30pm 27.3 28.3 21.1 69 4.1 NNE 17 28 9 15 1010.9 1010.6 0.0
25/06:00pm 28.0 28.6 20.3 63 5.1 NNE 17 26 9 14 1010.6 1010.3 0.0

Other Formats:

Comma delimited format used in spreadsheet applications
http://www.bom.gov.au/fwo/IDD60801/IDD60801.95101.axf

JavaScript Object Notation format (JSON) in row-major order
http://www.bom.gov.au/fwo/IDD60801/IDD60801.95101.json